Time;durP1;ratioP1;P1;durP2;ratioP2;P2;SDS_P1;SDS_P2;PMS_P1;PMS_P2;Temp;Humidity;BMP_temperature;BMP_pressure;BME280_temperature;BME280_humidity;BME280_pressure;Samples;Min_cycle;Max_cycle;Signal;HPM_P1;HPM_P2
2020/12/10 00:00:11;;;;;;;68.68;48.70;;;;;;;;;;5075744;28;20226;-80
2020/12/10 00:02:38;;;;;;;72.57;48.85;;;;;;;;;;5075832;28;20237;-82
2020/12/10 00:05:07;;;;;;;67.28;49.13;;;;;;;;;;5075825;28;20185;-81
2020/12/10 00:07:34;;;;;;;75.85;49.97;;;;;;;;;;5075996;28;20597;-81
2020/12/10 00:10:01;;;;;;;74.32;50.13;;;;;;;;;;5075770;28;20200;-81
2020/12/10 00:12:28;;;;;;;72.78;50.85;;;;;;;;;;5075747;28;20217;-80
2020/12/10 00:14:55;;;;;;;71.32;48.97;;;;;;;;;;5076421;28;20216;-81
2020/12/10 00:17:25;;;;;;;79.97;51.13;;;;;;;;;;5076349;28;20274;-80
2020/12/10 00:19:52;;;;;;;71.55;49.70;;;;;;;;;;5076499;28;20223;-81
2020/12/10 00:22:20;;;;;;;75.95;50.10;;;;;;;;;;5076425;28;20189;-81
2020/12/10 00:24:48;;;;;;;67.88;47.10;;;;;;;;;;5076110;28;20187;-82
2020/12/10 00:27:15;;;;;;;68.40;49.03;;;;;;;;;;5075978;28;20271;-81
2020/12/10 00:29:42;;;;;;;68.13;48.13;;;;;;;;;;5076097;28;20185;-81
2020/12/10 00:32:11;;;;;;;69.40;47.47;;;;;;;;;;5075872;28;20189;-81
2020/12/10 00:34:38;;;;;;;66.97;49.03;;;;;;;;;;5075481;28;20274;-81
2020/12/10 00:37:06;;;;;;;72.80;51.20;;;;;;;;;;5075421;28;20219;-82
2020/12/10 00:39:34;;;;;;;64.00;45.65;;;;;;;;;;5074862;28;20193;-82
2020/12/10 00:42:01;;;;;;;73.68;48.42;;;;;;;;;;5075240;28;20189;-81
2020/12/10 00:44:28;;;;;;;75.63;50.95;;;;;;;;;;5075307;28;20192;-81
2020/12/10 00:46:55;;;;;;;72.85;46.85;;;;;;;;;;5075496;28;20233;-82
2020/12/10 00:49:22;;;;;;;71.15;48.55;;;;;;;;;;5075218;28;20216;-81
2020/12/10 00:51:49;;;;;;;64.57;46.83;;;;;;;;;;5075100;28;20209;-81
2020/12/10 00:54:17;;;;;;;72.03;47.30;;;;;;;;;;5075099;28;20185;-81
2020/12/10 00:56:45;;;;;;;65.53;48.08;;;;;;;;;;5074762;28;20209;-82
2020/12/10 00:59:12;;;;;;;72.85;48.38;;;;;;;;;;5075835;28;20208;-81
2020/12/10 01:01:40;;;;;;;66.90;48.83;;;;;;;;;;5074466;28;20298;-81
2020/12/10 01:04:07;;;;;;;76.40;46.70;;;;;;;;;;5075893;28;20208;-81
2020/12/10 01:06:34;;;;;;;70.07;48.13;;;;;;;;;;5074699;28;20193;-81
2020/12/10 01:09:01;;;;;;;80.72;51.30;;;;;;;;;;5057038;28;20657;-81
2020/12/10 01:11:28;;;;;;;73.35;46.67;;;;;;;;;;5074668;28;20250;-81
2020/12/10 01:13:56;;;;;;;71.90;48.70;;;;;;;;;;5074573;28;20641;-81
2020/12/10 01:16:23;;;;;;;67.43;47.15;;;;;;;;;;5074454;28;20203;-81
2020/12/10 01:18:50;;;;;;;67.07;47.83;;;;;;;;;;5074646;28;20549;-81
2020/12/10 01:21:17;;;;;;;64.75;49.28;;;;;;;;;;5074400;28;20258;-81
2020/12/10 01:23:44;;;;;;;75.00;49.30;;;;;;;;;;5074674;28;20192;-81
2020/12/10 01:26:11;;;;;;;70.18;48.50;;;;;;;;;;5074225;28;20594;-82
2020/12/10 01:28:38;;;;;;;72.95;48.95;;;;;;;;;;5074466;28;20204;-82
2020/12/10 01:31:06;;;;;;;64.88;45.35;;;;;;;;;;5074129;28;20193;-81
2020/12/10 01:33:32;;;;;;;69.03;45.92;;;;;;;;;;5074909;28;20254;-81
2020/12/10 01:35:59;;;;;;;70.78;47.35;;;;;;;;;;5074785;28;20589;-82
2020/12/10 01:38:26;;;;;;;70.68;46.95;;;;;;;;;;5074229;28;20222;-82
2020/12/10 01:40:53;;;;;;;72.40;48.50;;;;;;;;;;5074348;28;20215;-81
2020/12/10 01:43:20;;;;;;;71.82;46.80;;;;;;;;;;5074562;28;20215;-81
2020/12/10 01:45:47;;;;;;;73.80;48.45;;;;;;;;;;5074451;28;20207;-81
2020/12/10 01:48:15;;;;;;;77.72;49.85;;;;;;;;;;5056622;28;20530;-82
2020/12/10 01:50:42;;;;;;;73.05;49.33;;;;;;;;;;5074480;28;20696;-82
2020/12/10 01:53:09;;;;;;;80.85;50.40;;;;;;;;;;5074295;28;20591;-82
2020/12/10 01:55:36;;;;;;;78.80;49.65;;;;;;;;;;5074267;28;20191;-82
2020/12/10 01:58:03;;;;;;;74.65;49.28;;;;;;;;;;5074349;28;20889;-81
2020/12/10 02:00:30;;;;;;;75.35;51.45;;;;;;;;;;5074233;28;20216;-81
2020/12/10 02:02:57;;;;;;;76.07;48.35;;;;;;;;;;5074150;28;20227;-82
2020/12/10 02:05:24;;;;;;;81.00;48.60;;;;;;;;;;5074613;28;20669;-82
2020/12/10 02:07:51;;;;;;;71.15;47.28;;;;;;;;;;5075834;28;20192;-82
2020/12/10 02:10:18;;;;;;;77.88;48.42;;;;;;;;;;5075926;28;20235;-82
2020/12/10 02:12:45;;;;;;;75.97;48.65;;;;;;;;;;5075481;28;20199;-82
2020/12/10 02:15:12;;;;;;;74.40;48.08;;;;;;;;;;5075558;28;20277;-82
2020/12/10 02:17:39;;;;;;;75.85;47.97;;;;;;;;;;5074834;28;20212;-83
2020/12/10 02:20:06;;;;;;;72.68;48.17;;;;;;;;;;5074344;28;20204;-81
2020/12/10 02:22:34;;;;;;;66.15;45.38;;;;;;;;;;5075262;28;20254;-82
2020/12/10 02:25:01;;;;;;;82.45;48.58;;;;;;;;;;5074640;28;20208;-82
2020/12/10 02:27:28;;;;;;;66.75;45.22;;;;;;;;;;5074551;28;20547;-81
2020/12/10 02:29:55;;;;;;;67.50;46.80;;;;;;;;;;5074517;28;20203;-81
2020/12/10 02:32:22;;;;;;;77.82;49.20;;;;;;;;;;5074506;28;20607;-82
2020/12/10 02:34:49;;;;;;;69.90;48.10;;;;;;;;;;5073666;28;20710;-81
2020/12/10 02:37:16;;;;;;;69.22;48.17;;;;;;;;;;5074625;28;20236;-81
2020/12/10 02:39:43;;;;;;;66.80;47.83;;;;;;;;;;5073696;28;20188;-82
2020/12/10 02:42:11;;;;;;;73.63;47.65;;;;;;;;;;5074053;28;20544;-81
2020/12/10 02:44:38;;;;;;;66.78;45.50;;;;;;;;;;5073701;28;20199;-81
2020/12/10 02:47:05;;;;;;;66.57;45.88;;;;;;;;;;5073805;28;20192;-81
2020/12/10 02:49:32;;;;;;;71.95;48.25;;;;;;;;;;5074124;28;20189;-81
2020/12/10 02:51:59;;;;;;;70.93;48.85;;;;;;;;;;5073936;28;20208;-81
2020/12/10 02:54:26;;;;;;;63.92;45.30;;;;;;;;;;5073469;28;20283;-81
2020/12/10 02:56:53;;;;;;;67.88;45.65;;;;;;;;;;5074247;28;20195;-81
2020/12/10 02:59:21;;;;;;;58.78;43.30;;;;;;;;;;5073456;28;20199;-81
2020/12/10 03:01:52;;;;;;;65.13;46.10;;;;;;;;;;5073631;28;20592;-81
2020/12/10 03:04:19;;;;;;;66.55;44.70;;;;;;;;;;5077223;28;20736;-81
2020/12/10 03:06:46;;;;;;;66.22;45.00;;;;;;;;;;5076908;28;20202;-81
2020/12/10 03:09:13;;;;;;;67.85;44.65;;;;;;;;;;5077623;28;20196;-81
2020/12/10 03:11:40;;;;;;;65.07;44.70;;;;;;;;;;5077578;28;20264;-81
2020/12/10 03:14:07;;;;;;;63.70;43.85;;;;;;;;;;5076919;28;20189;-81
2020/12/10 03:16:35;;;;;;;68.60;45.33;;;;;;;;;;5076742;28;20201;-81
2020/12/10 03:19:01;;;;;;;64.15;45.42;;;;;;;;;;5076590;28;20220;-81
2020/12/10 03:21:28;;;;;;;73.25;44.97;;;;;;;;;;5077130;28;20188;-81
2020/12/10 03:23:55;;;;;;;65.07;46.05;;;;;;;;;;5077749;28;20204;-81
2020/12/10 03:26:22;;;;;;;64.55;45.60;;;;;;;;;;5076765;28;20208;-81
2020/12/10 03:28:49;;;;;;;61.85;44.95;;;;;;;;;;5076474;28;20646;-81
2020/12/10 03:31:15;;;;;;;65.63;49.00;;;;;;;;;;5076565;28;20189;-81
2020/12/10 03:33:43;;;;;;;67.82;46.35;;;;;;;;;;5076626;28;20208;-81
2020/12/10 03:36:10;;;;;;;65.03;45.53;;;;;;;;;;5076453;28;20638;-81
2020/12/10 03:38:37;;;;;;;61.15;45.38;;;;;;;;;;5076233;28;20217;-81
2020/12/10 03:41:05;;;;;;;60.67;45.13;;;;;;;;;;5076568;28;20192;-81
2020/12/10 03:43:32;;;;;;;69.03;46.10;;;;;;;;;;5077366;28;20528;-81
2020/12/10 03:45:59;;;;;;;69.35;47.33;;;;;;;;;;5076528;28;20189;-82
2020/12/10 03:48:26;;;;;;;64.65;43.67;;;;;;;;;;5076581;28;20187;-81
2020/12/10 03:50:54;;;;;;;64.22;44.97;;;;;;;;;;5076143;28;20192;-81
2020/12/10 03:53:20;;;;;;;62.80;43.90;;;;;;;;;;5076066;28;20184;-81
2020/12/10 03:55:47;;;;;;;62.05;45.88;;;;;;;;;;5076236;28;20212;-81
2020/12/10 03:58:14;;;;;;;59.83;45.28;;;;;;;;;;5075876;28;20223;-82
2020/12/10 04:00:41;;;;;;;67.32;45.05;;;;;;;;;;5075863;28;20247;-81
2020/12/10 04:03:08;;;;;;;68.15;45.58;;;;;;;;;;5075662;28;20290;-82
2020/12/10 04:05:34;;;;;;;66.85;44.63;;;;;;;;;;5076113;28;20204;-81
2020/12/10 04:08:02;;;;;;;68.38;46.30;;;;;;;;;;5076210;28;20188;-81
2020/12/10 04:10:29;;;;;;;61.35;43.70;;;;;;;;;;5076030;28;20234;-81
2020/12/10 04:12:56;;;;;;;66.90;46.55;;;;;;;;;;5075692;28;20197;-81
2020/12/10 04:15:23;;;;;;;63.13;45.40;;;;;;;;;;5075848;28;20548;-81
2020/12/10 04:17:50;;;;;;;58.67;42.88;;;;;;;;;;5075624;28;20220;-81
2020/12/10 04:20:17;;;;;;;55.72;41.33;;;;;;;;;;5075506;28;20210;-81
2020/12/10 04:22:44;;;;;;;67.30;43.95;;;;;;;;;;5075990;28;20204;-82
2020/12/10 04:25:12;;;;;;;67.13;44.65;;;;;;;;;;5074765;28;20262;-81
2020/12/10 04:27:38;;;;;;;60.38;42.60;;;;;;;;;;5075866;28;20192;-81
2020/12/10 04:30:05;;;;;;;63.90;43.85;;;;;;;;;;5075278;28;20541;-81
2020/12/10 04:32:32;;;;;;;57.85;43.58;;;;;;;;;;5075457;28;20193;-81
2020/12/10 04:34:59;;;;;;;56.22;44.15;;;;;;;;;;5075569;28;20187;-81
2020/12/10 04:37:26;;;;;;;75.45;45.63;;;;;;;;;;5076175;28;20262;-81
2020/12/10 04:39:53;;;;;;;63.75;42.70;;;;;;;;;;5075419;28;20544;-81
2020/12/10 04:42:21;;;;;;;71.80;45.70;;;;;;;;;;5075851;28;20278;-81
2020/12/10 04:44:48;;;;;;;68.88;45.13;;;;;;;;;;5075389;28;20188;-82
2020/12/10 04:47:15;;;;;;;70.55;46.63;;;;;;;;;;5073969;28;20200;-81
2020/12/10 04:49:42;;;;;;;69.22;45.50;;;;;;;;;;5075241;28;20196;-81
2020/12/10 04:52:09;;;;;;;73.85;45.80;;;;;;;;;;5075097;28;20184;-81
2020/12/10 04:54:36;;;;;;;62.53;44.67;;;;;;;;;;5075337;28;20188;-81
2020/12/10 04:57:03;;;;;;;71.40;46.60;;;;;;;;;;5075004;28;20649;-81
2020/12/10 04:59:31;;;;;;;76.25;46.53;;;;;;;;;;5074703;28;20199;-81
2020/12/10 05:01:58;;;;;;;66.03;45.45;;;;;;;;;;5074480;28;20231;-81
2020/12/10 05:04:25;;;;;;;74.32;47.20;;;;;;;;;;5074708;28;20195;-81
2020/12/10 05:06:52;;;;;;;72.72;45.28;;;;;;;;;;5074513;28;20188;-81
2020/12/10 05:09:19;;;;;;;73.57;46.50;;;;;;;;;;5074892;28;20199;-81
2020/12/10 05:11:46;;;;;;;75.72;47.95;;;;;;;;;;5074814;28;20201;-81
2020/12/10 05:14:12;;;;;;;72.22;45.53;;;;;;;;;;5074750;28;20187;-81
2020/12/10 05:16:40;;;;;;;76.78;47.13;;;;;;;;;;5074762;28;20189;-81
2020/12/10 05:19:17;;;;;;;69.03;45.20;;;;;;;;;;5074530;28;20227;-81
2020/12/10 05:22:00;;;;;;;71.72;45.13;;;;;;;;;;5074595;28;20282;-81
2020/12/10 05:24:27;;;;;;;77.53;46.55;;;;;;;;;;5057041;28;20228;-81
2020/12/10 05:27:09;;;;;;;69.07;44.13;;;;;;;;;;5074155;28;20195;-81
2020/12/10 05:29:36;;;;;;;77.55;48.83;;;;;;;;;;5073687;28;20204;-81
2020/12/10 05:32:03;;;;;;;78.55;46.25;;;;;;;;;;5074004;28;20642;-81
2020/12/10 05:34:30;;;;;;;76.97;46.58;;;;;;;;;;5074343;28;20592;-81
2020/12/10 05:36:57;;;;;;;76.07;46.55;;;;;;;;;;5074143;28;20545;-81
2020/12/10 05:39:24;;;;;;;73.13;46.22;;;;;;;;;;5073275;28;20675;-81
2020/12/10 05:41:54;;;;;;;88.47;50.08;;;;;;;;;;5073901;28;20626;-80
2020/12/10 05:44:21;;;;;;;67.13;45.60;;;;;;;;;;5074248;28;20192;-81
2020/12/10 05:46:51;;;;;;;80.20;47.80;;;;;;;;;;5074495;28;20206;-81
2020/12/10 05:49:19;;;;;;;77.63;47.17;;;;;;;;;;5074811;28;20220;-81
2020/12/10 05:51:46;;;;;;;74.70;46.88;;;;;;;;;;5074365;28;20189;-80
2020/12/10 05:54:13;;;;;;;65.50;46.05;;;;;;;;;;5074880;28;20195;-80
2020/12/10 05:56:55;;;;;;;67.05;44.70;;;;;;;;;;5074223;28;20241;-81
2020/12/10 05:59:22;;;;;;;74.20;47.50;;;;;;;;;;5074247;28;20225;-80
2020/12/10 06:01:49;;;;;;;71.43;47.03;;;;;;;;;;5073971;28;20268;-80
2020/12/10 06:04:17;;;;;;;70.63;46.30;;;;;;;;;;5073911;28;20550;-81
2020/12/10 06:06:47;;;;;;;65.00;44.55;;;;;;;;;;5074520;28;20198;-81
2020/12/10 06:09:15;;;;;;;65.68;45.53;;;;;;;;;;5073985;28;20193;-81
2020/12/10 06:11:42;;;;;;;71.32;45.40;;;;;;;;;;5074141;28;20199;-81
2020/12/10 06:14:09;;;;;;;76.65;48.25;;;;;;;;;;5074006;28;20196;-81
2020/12/10 06:16:36;;;;;;;67.78;45.85;;;;;;;;;;5074188;28;20184;-81
2020/12/10 06:19:04;;;;;;;74.72;47.90;;;;;;;;;;5073671;28;20227;-81
2020/12/10 06:21:43;;;;;;;68.97;45.45;;;;;;;;;;5073544;28;20637;-80
2020/12/10 06:24:28;;;;;;;67.95;46.13;;;;;;;;;;5073929;28;20192;-81
2020/12/10 06:26:56;;;;;;;70.88;45.85;;;;;;;;;;5073541;28;20196;-80
2020/12/10 06:29:24;;;;;;;73.45;46.55;;;;;;;;;;5073788;28;20193;-80
2020/12/10 06:32:18;;;;;;;79.22;48.20;;;;;;;;;;5073557;28;20222;-81
2020/12/10 06:34:46;;;;;;;71.45;44.63;;;;;;;;;;5011758;28;20688;-81
2020/12/10 06:37:14;;;;;;;76.07;46.28;;;;;;;;;;4996529;28;20202;-80
2020/12/10 06:39:41;;;;;;;86.47;49.40;;;;;;;;;;5015877;28;20197;-81
2020/12/10 06:42:09;;;;;;;73.20;47.15;;;;;;;;;;5015730;28;20294;-80
2020/12/10 06:44:36;;;;;;;76.72;49.22;;;;;;;;;;5015734;28;20202;-80
2020/12/10 06:47:03;;;;;;;72.50;46.42;;;;;;;;;;5015486;28;20194;-81
2020/12/10 06:49:31;;;;;;;79.03;47.78;;;;;;;;;;5016404;28;20205;-81
2020/12/10 06:52:08;;;;;;;69.28;47.15;;;;;;;;;;5016027;28;20206;-81
2020/12/10 06:54:35;;;;;;;75.97;44.95;;;;;;;;;;5016293;28;20197;-81
2020/12/10 06:57:04;;;;;;;78.47;46.97;;;;;;;;;;5015586;28;20206;-82
2020/12/10 06:59:42;;;;;;;75.25;46.13;;;;;;;;;;5015725;28;20237;-80
2020/12/10 07:02:13;;;;;;;80.10;47.45;;;;;;;;;;5016051;28;20659;-81
2020/12/10 07:04:47;;;;;;;86.03;47.80;;;;;;;;;;5016761;28;20288;-81
2020/12/10 07:07:15;;;;;;;84.47;48.20;;;;;;;;;;5016140;28;20297;-80
2020/12/10 07:09:49;;;;;;;81.32;47.72;;;;;;;;;;5028383;28;20258;-81
2020/12/10 07:12:20;;;;;;;75.20;45.90;;;;;;;;;;5077181;28;20237;-80
2020/12/10 07:14:48;;;;;;;80.85;47.03;;;;;;;;;;5077331;28;20216;-82
2020/12/10 07:17:15;;;;;;;91.72;50.40;;;;;;;;;;5077034;28;20199;-80
2020/12/10 07:19:42;;;;;;;78.45;47.67;;;;;;;;;;5076989;28;20214;-80
2020/12/10 07:22:09;;;;;;;75.18;46.75;;;;;;;;;;5076762;28;20264;-78
2020/12/10 07:24:36;;;;;;;84.68;49.65;;;;;;;;;;5076638;28;20188;-80
2020/12/10 07:27:03;;;;;;;89.25;49.83;;;;;;;;;;5076811;28;20203;-80
2020/12/10 07:29:29;;;;;;;89.63;48.25;;;;;;;;;;5076845;28;20512;-80
2020/12/10 07:31:57;;;;;;;79.03;46.75;;;;;;;;;;5076545;28;20188;-80
2020/12/10 07:34:24;;;;;;;91.70;49.92;;;;;;;;;;5076356;28;20188;-80
2020/12/10 07:36:53;;;;;;;78.43;49.15;;;;;;;;;;5076454;28;20271;-80
2020/12/10 07:39:30;;;;;;;92.03;48.95;;;;;;;;;;5076241;28;20698;-80
2020/12/10 07:41:57;;;;;;;89.07;49.72;;;;;;;;;;5076469;28;20706;-79
2020/12/10 07:44:28;;;;;;;79.63;49.38;;;;;;;;;;5075353;28;20203;-80
2020/12/10 07:46:55;;;;;;;85.68;50.42;;;;;;;;;;5076387;28;20196;-80
2020/12/10 07:49:29;;;;;;;78.18;52.72;;;;;;;;;;5075785;28;20192;-80
2020/12/10 07:52:03;;;;;;;78.38;49.40;;;;;;;;;;5076331;28;20196;-80
2020/12/10 07:54:41;;;;;;;88.82;50.10;;;;;;;;;;5074870;28;20261;-78
2020/12/10 07:57:10;;;;;;;79.68;47.97;;;;;;;;;;5059171;28;20189;-80
2020/12/10 07:59:39;;;;;;;77.47;49.03;;;;;;;;;;5055880;28;20631;-79
2020/12/10 08:02:09;;;;;;;86.82;49.83;;;;;;;;;;5054752;28;20238;-79
2020/12/10 08:04:42;;;;;;;83.00;49.03;;;;;;;;;;5072566;28;20208;-79
2020/12/10 08:07:12;;;;;;;90.60;49.28;;;;;;;;;;5075988;28;20189;-80
2020/12/10 08:09:39;;;;;;;80.47;51.85;;;;;;;;;;5075717;28;20196;-80
2020/12/10 08:12:05;;;;;;;91.15;52.00;;;;;;;;;;5076054;28;20211;-80
2020/12/10 08:14:32;;;;;;;87.25;48.85;;;;;;;;;;5075681;28;20222;-80
2020/12/10 08:17:00;;;;;;;89.38;48.38;;;;;;;;;;5075528;28;20552;-80
2020/12/10 08:19:30;;;;;;;82.10;48.80;;;;;;;;;;5075261;28;20216;-80
2020/12/10 08:21:58;;;;;;;86.15;46.80;;;;;;;;;;5075378;28;20184;-80
2020/12/10 08:24:34;;;;;;;81.45;50.25;;;;;;;;;;5075679;28;20197;-80
2020/12/10 08:27:01;;;;;;;77.80;48.50;;;;;;;;;;5074365;28;20197;-79
2020/12/10 08:29:28;;;;;;;80.53;47.60;;;;;;;;;;5075609;28;20195;-80
2020/12/10 08:32:05;;;;;;;80.43;49.75;;;;;;;;;;5075552;28;20201;-79
2020/12/10 08:34:32;;;;;;;77.50;48.10;;;;;;;;;;5074796;28;20594;-79
2020/12/10 08:37:04;;;;;;;77.20;47.88;;;;;;;;;;5075056;28;20248;-79
2020/12/10 08:39:33;;;;;;;74.47;47.58;;;;;;;;;;5074679;28;20236;-79
2020/12/10 08:42:00;;;;;;;71.50;46.47;;;;;;;;;;5075982;28;20212;-80
2020/12/10 08:44:27;;;;;;;84.43;45.63;;;;;;;;;;5074818;28;20242;-79
2020/12/10 08:47:00;;;;;;;76.60;46.75;;;;;;;;;;5074614;28;20191;-80
2020/12/10 08:49:27;;;;;;;89.45;49.13;;;;;;;;;;5073371;28;20231;-80
2020/12/10 08:51:54;;;;;;;77.95;46.30;;;;;;;;;;5075357;28;20200;-79
2020/12/10 08:54:22;;;;;;;66.60;44.58;;;;;;;;;;5062375;28;20251;-88
2020/12/10 08:56:55;;;;;;;69.60;45.92;;;;;;;;;;5055240;28;20212;-80
2020/12/10 08:59:22;;;;;;;69.70;44.80;;;;;;;;;;5055011;28;20618;-79
2020/12/10 09:01:52;;;;;;;68.25;44.65;;;;;;;;;;5054620;28;20234;-79
2020/12/10 09:04:19;;;;;;;67.70;45.22;;;;;;;;;;5054961;28;20193;-77
2020/12/10 09:06:47;;;;;;;63.83;44.50;;;;;;;;;;5053380;28;20208;-81
2020/12/10 09:09:14;;;;;;;67.85;45.50;;;;;;;;;;5054879;28;20196;-81
2020/12/10 09:11:45;;;;;;;67.85;44.05;;;;;;;;;;5054798;28;20192;-81
2020/12/10 09:14:12;;;;;;;60.50;43.40;;;;;;;;;;5054875;28;20293;-81
2020/12/10 09:16:39;;;;;;;63.10;44.35;;;;;;;;;;5053494;28;20335;-80
2020/12/10 09:19:06;;;;;;;67.95;46.92;;;;;;;;;;5054642;28;20216;-80
2020/12/10 09:21:35;;;;;;;55.13;42.33;;;;;;;;;;5054614;28;20186;-84
2020/12/10 09:24:02;;;;;;;53.75;44.15;;;;;;;;;;5054803;28;20275;-86
2020/12/10 09:26:29;;;;;;;61.78;43.30;;;;;;;;;;5054926;28;20201;-81
2020/12/10 09:28:57;;;;;;;63.30;43.97;;;;;;;;;;5054435;28;20550;-82
2020/12/10 09:31:23;;;;;;;61.38;46.25;;;;;;;;;;5052981;28;20202;-82
2020/12/10 09:33:50;;;;;;;57.35;44.50;;;;;;;;;;5054215;28;20590;-82
2020/12/10 09:36:17;;;;;;;55.58;42.85;;;;;;;;;;5053180;28;20235;-81
2020/12/10 09:38:44;;;;;;;56.25;42.95;;;;;;;;;;5054193;28;20225;-82
2020/12/10 09:41:11;;;;;;;55.78;44.50;;;;;;;;;;5054391;28;20189;-81
2020/12/10 09:43:38;;;;;;;59.97;43.22;;;;;;;;;;5054140;28;20240;-81
2020/12/10 09:46:09;;;;;;;59.67;43.97;;;;;;;;;;5053967;28;20558;-80
2020/12/10 09:48:36;;;;;;;55.33;41.67;;;;;;;;;;5054199;28;20200;-82
2020/12/10 09:51:04;;;;;;;52.67;41.28;;;;;;;;;;5054184;28;20247;-81
2020/12/10 09:53:36;;;;;;;58.58;42.15;;;;;;;;;;5053830;28;20275;-81
2020/12/10 09:58:48;;;;;;;56.33;42.75;;;;;;;;;;5053821;28;20215;-82
2020/12/10 10:01:16;;;;;;;48.20;41.97;;;;;;;;;;5053527;28;20238;-81
2020/12/10 10:03:43;;;;;;;52.88;41.58;;;;;;;;;;5053856;28;20188;-81
2020/12/10 10:06:12;;;;;;;55.20;40.95;;;;;;;;;;5053988;28;20229;-81
2020/12/10 10:08:38;;;;;;;54.17;41.15;;;;;;;;;;5053657;28;20208;-81
2020/12/10 10:11:05;;;;;;;51.58;41.20;;;;;;;;;;5053670;28;20204;-82
2020/12/10 10:13:32;;;;;;;50.97;41.22;;;;;;;;;;5053930;28;20220;-81
2020/12/10 10:16:01;;;;;;;49.15;38.85;;;;;;;;;;5054013;28;20548;-81
2020/12/10 10:18:29;;;;;;;55.42;42.67;;;;;;;;;;5053932;28;20292;-81
2020/12/10 10:20:56;;;;;;;52.67;43.40;;;;;;;;;;5053653;28;20212;-82
2020/12/10 10:23:25;;;;;;;51.75;41.85;;;;;;;;;;5053755;28;20196;-81
2020/12/10 10:25:53;;;;;;;45.42;38.92;;;;;;;;;;5054008;28;20193;-82
2020/12/10 10:28:20;;;;;;;50.10;40.75;;;;;;;;;;5035987;28;20581;-82
2020/12/10 10:30:47;;;;;;;48.67;39.03;;;;;;;;;;5053162;28;20213;-81
2020/12/10 10:33:15;;;;;;;49.55;39.30;;;;;;;;;;5053804;28;20192;-81
2020/12/10 10:35:42;;;;;;;44.75;37.65;;;;;;;;;;5053814;28;20258;-81
2020/12/10 10:38:09;;;;;;;47.78;39.15;;;;;;;;;;5053655;28;20267;-82
2020/12/10 10:40:39;;;;;;;49.92;39.15;;;;;;;;;;5053714;28;20190;-81
2020/12/10 10:43:06;;;;;;;44.17;37.72;;;;;;;;;;5053406;28;20263;-81
2020/12/10 10:45:33;;;;;;;45.95;37.30;;;;;;;;;;5053509;28;20644;-81
2020/12/10 10:48:00;;;;;;;47.78;39.40;;;;;;;;;;5053837;28;20192;-80
2020/12/10 10:50:27;;;;;;;52.53;38.83;;;;;;;;;;5053042;28;20281;-81
2020/12/10 10:52:54;;;;;;;47.80;40.05;;;;;;;;;;5052238;28;20209;-80
2020/12/10 10:55:21;;;;;;;50.30;40.10;;;;;;;;;;5053109;28;20189;-80
2020/12/10 10:57:48;;;;;;;47.92;39.15;;;;;;;;;;5053395;28;20190;-81
2020/12/10 11:00:15;;;;;;;48.10;40.70;;;;;;;;;;5052771;28;20230;-80
2020/12/10 11:02:42;;;;;;;45.70;39.78;;;;;;;;;;5052973;28;20240;-80
2020/12/10 11:05:09;;;;;;;48.80;38.92;;;;;;;;;;5053198;28;20193;-81
2020/12/10 11:07:36;;;;;;;45.20;38.20;;;;;;;;;;5053294;28;20199;-81
2020/12/10 11:10:04;;;;;;;45.13;39.13;;;;;;;;;;5053149;28;20715;-81
2020/12/10 11:12:31;;;;;;;46.80;39.58;;;;;;;;;;5053460;28;20213;-81
2020/12/10 11:14:58;;;;;;;47.95;39.70;;;;;;;;;;5053567;28;20280;-81
2020/12/10 11:17:25;;;;;;;46.42;40.50;;;;;;;;;;5053177;28;20194;-80
2020/12/10 11:19:52;;;;;;;48.15;40.42;;;;;;;;;;5052389;28;20228;-81
2020/12/10 11:22:19;;;;;;;45.00;37.95;;;;;;;;;;5053134;28;20193;-81
2020/12/10 11:24:46;;;;;;;47.10;38.17;;;;;;;;;;5056474;28;20543;-81
2020/12/10 11:27:13;;;;;;;53.50;41.45;;;;;;;;;;5056635;28;20197;-81
2020/12/10 11:29:40;;;;;;;47.65;39.70;;;;;;;;;;5056559;28;20244;-81
2020/12/10 11:32:07;;;;;;;44.03;38.00;;;;;;;;;;5056636;28;20260;-81
2020/12/10 11:34:34;;;;;;;45.50;38.40;;;;;;;;;;5055952;28;20205;-82
2020/12/10 11:37:01;;;;;;;51.45;39.25;;;;;;;;;;5053959;28;20193;-78
2020/12/10 11:39:28;;;;;;;47.10;37.45;;;;;;;;;;5055508;28;20217;-80
2020/12/10 11:41:55;;;;;;;53.75;39.95;;;;;;;;;;5055960;28;20724;-77
2020/12/10 11:44:22;;;;;;;50.35;42.50;;;;;;;;;;5056380;28;20643;-78
2020/12/10 11:46:49;;;;;;;51.35;39.78;;;;;;;;;;5056379;28;20188;-82
2020/12/10 11:49:16;;;;;;;50.20;40.58;;;;;;;;;;5059825;28;20196;-80
2020/12/10 11:51:43;;;;;;;51.92;42.13;;;;;;;;;;5062111;28;20205;-81
2020/12/10 11:54:10;;;;;;;49.50;39.55;;;;;;;;;;5058776;28;20186;-78
2020/12/10 11:56:37;;;;;;;53.03;42.88;;;;;;;;;;5056294;28;20201;-80
2020/12/10 11:59:04;;;;;;;49.50;40.10;;;;;;;;;;5055577;28;20236;-79
2020/12/10 12:01:31;;;;;;;51.30;41.65;;;;;;;;;;5055738;28;20259;-78
2020/12/10 12:03:59;;;;;;;50.17;41.65;;;;;;;;;;5056136;28;20264;-83
2020/12/10 12:06:25;;;;;;;49.45;40.30;;;;;;;;;;5056510;28;20296;-95
2020/12/10 12:08:52;;;;;;;52.60;41.05;;;;;;;;;;5056818;28;20206;-95
2020/12/10 12:11:23;;;;;;;52.05;41.38;;;;;;;;;;5056445;28;20549;-95
2020/12/10 12:13:50;;;;;;;53.83;41.70;;;;;;;;;;5039346;28;20189;-92
2020/12/10 12:16:17;;;;;;;51.80;39.60;;;;;;;;;;5057365;28;20208;-93
2020/12/10 12:18:46;;;;;;;51.28;40.83;;;;;;;;;;5056609;28;20212;-92
2020/12/10 12:21:13;;;;;;;48.97;41.05;;;;;;;;;;5056776;28;20255;-92
2020/12/10 12:23:40;;;;;;;51.10;40.28;;;;;;;;;;5055479;28;20204;-90
2020/12/10 12:26:07;;;;;;;46.40;38.75;;;;;;;;;;5056429;28;20544;-94
2020/12/10 12:28:34;;;;;;;54.55;40.30;;;;;;;;;;5055237;28;20233;-93
2020/12/10 12:31:01;;;;;;;53.70;40.00;;;;;;;;;;5056099;28;20554;-92
2020/12/10 12:33:28;;;;;;;50.17;39.67;;;;;;;;;;5038953;28;20190;-92
2020/12/10 12:35:56;;;;;;;53.45;42.88;;;;;;;;;;5054922;28;20208;-94
2020/12/10 12:38:23;;;;;;;50.55;40.17;;;;;;;;;;5056421;28;20218;-93
2020/12/10 12:40:50;;;;;;;52.60;40.88;;;;;;;;;;5055829;28;20190;-94
2020/12/10 12:43:17;;;;;;;53.20;42.78;;;;;;;;;;5055153;28;20205;-95
2020/12/10 12:45:44;;;;;;;48.30;40.22;;;;;;;;;;5055826;28;20194;-94
2020/12/10 12:48:11;;;;;;;51.28;40.65;;;;;;;;;;5055821;28;20189;-94
2020/12/10 12:50:38;;;;;;;53.63;40.65;;;;;;;;;;5055894;28;20565;-95
2020/12/10 12:53:06;;;;;;;49.78;40.10;;;;;;;;;;5070141;28;20258;-93
2020/12/10 12:55:36;;;;;;;52.60;40.92;;;;;;;;;;5075904;28;20213;-93
2020/12/10 12:58:03;;;;;;;49.75;38.67;;;;;;;;;;5074982;28;20206;-76
2020/12/10 13:00:31;;;;;;;47.03;39.97;;;;;;;;;;5073311;28;20230;-77
2020/12/10 13:02:57;;;;;;;52.45;40.35;;;;;;;;;;5074690;28;20229;-78
2020/12/10 13:05:24;;;;;;;51.90;40.63;;;;;;;;;;5074557;28;20204;-80
2020/12/10 13:07:51;;;;;;;52.35;40.15;;;;;;;;;;5065015;28;20216;-93
2020/12/10 13:10:19;;;;;;;51.05;40.92;;;;;;;;;;5057591;28;20522;-93
2020/12/10 13:12:46;;;;;;;52.15;40.88;;;;;;;;;;5075102;28;20657;-93
2020/12/10 13:15:13;;;;;;;48.78;39.55;;;;;;;;;;5074660;28;20220;-93
2020/12/10 13:17:40;;;;;;;49.03;39.17;;;;;;;;;;5075453;28;20194;-93
2020/12/10 13:20:08;;;;;;;54.95;42.28;;;;;;;;;;5075062;28;20708;-94
2020/12/10 13:22:35;;;;;;;50.72;40.97;;;;;;;;;;5075278;28;20201;-93
2020/12/10 13:25:02;;;;;;;57.83;43.50;;;;;;;;;;5075369;28;20195;-93
2020/12/10 13:27:30;;;;;;;49.45;40.58;;;;;;;;;;5075240;28;20580;-93
2020/12/10 13:29:57;;;;;;;51.47;41.72;;;;;;;;;;5075002;28;20587;-93
2020/12/10 13:32:24;;;;;;;52.10;39.90;;;;;;;;;;5075279;28;20247;-93
2020/12/10 13:34:51;;;;;;;50.78;40.92;;;;;;;;;;5075040;28;20193;-94
2020/12/10 13:37:17;;;;;;;47.65;40.55;;;;;;;;;;5075190;28;20255;-93
2020/12/10 13:39:45;;;;;;;49.78;39.33;;;;;;;;;;5074959;28;20312;-93
2020/12/10 13:42:12;;;;;;;44.78;38.17;;;;;;;;;;5074952;28;20213;-94
2020/12/10 13:44:39;;;;;;;49.30;40.35;;;;;;;;;;5074598;28;20204;-80
2020/12/10 13:47:06;;;;;;;46.88;39.03;;;;;;;;;;5073946;28;20205;-76
2020/12/10 13:49:33;;;;;;;45.15;39.00;;;;;;;;;;5074686;28;20192;-84
2020/12/10 13:52:00;;;;;;;47.80;39.90;;;;;;;;;;5074265;28;20194;-78
2020/12/10 13:54:27;;;;;;;49.95;39.50;;;;;;;;;;5073962;28;20703;-79
2020/12/10 13:56:54;;;;;;;46.65;39.15;;;;;;;;;;5074252;28;20272;-82
2020/12/10 13:59:21;;;;;;;52.33;39.88;;;;;;;;;;5074015;28;20709;-81
2020/12/10 14:01:50;;;;;;;49.30;40.28;;;;;;;;;;5074304;28;20228;-82
2020/12/10 14:04:19;;;;;;;52.45;40.80;;;;;;;;;;5074544;28;20197;-86
2020/12/10 14:06:45;;;;;;;49.50;40.88;;;;;;;;;;5074336;28;20196;-84
2020/12/10 14:09:13;;;;;;;52.85;41.00;;;;;;;;;;5074052;28;20204;-79
2020/12/10 14:11:40;;;;;;;49.08;40.20;;;;;;;;;;5074129;28;20201;-84
2020/12/10 14:14:06;;;;;;;48.95;40.55;;;;;;;;;;5074224;28;20200;-80
2020/12/10 14:16:33;;;;;;;45.83;40.83;;;;;;;;;;5074156;28;20238;-76
2020/12/10 14:19:01;;;;;;;51.42;41.60;;;;;;;;;;5073853;28;20607;-82
2020/12/10 14:21:28;;;;;;;49.42;41.90;;;;;;;;;;5073942;28;20195;-78